createdAt,value
2018-12-16T00:01:57.355Z,2.94
2018-12-16T00:04:25.639Z,2.94
2018-12-16T00:06:53.979Z,2.97
2018-12-16T00:09:22.319Z,2.99
2018-12-16T00:11:50.637Z,3.03
2018-12-16T00:14:18.983Z,3.07
2018-12-16T00:16:47.331Z,3.09
2018-12-16T00:19:15.670Z,3.10
2018-12-16T00:21:43.997Z,3.11
2018-12-16T00:24:12.517Z,3.09
2018-12-16T00:26:52.666Z,3.09
2018-12-16T00:29:21.045Z,3.06
2018-12-16T00:31:49.400Z,3.05
2018-12-16T00:34:17.741Z,3.04
2018-12-16T00:36:46.082Z,3.05
2018-12-16T00:39:14.415Z,3.04
2018-12-16T00:41:42.758Z,3.04
2018-12-16T00:44:11.111Z,3.07
2018-12-16T00:46:39.449Z,3.07
2018-12-16T00:49:07.789Z,3.05
2018-12-16T00:51:36.131Z,3.05
2018-12-16T00:54:04.487Z,3.06
2018-12-16T00:56:32.830Z,3.05
2018-12-16T00:59:01.176Z,3.05
2018-12-16T01:01:29.502Z,3.05
2018-12-16T01:03:57.861Z,3.02
2018-12-16T01:06:26.785Z,3.00
2018-12-16T01:09:02.615Z,2.97
2018-12-16T01:11:30.943Z,2.93
2018-12-16T01:13:59.309Z,2.91
2018-12-16T01:16:27.686Z,2.89
2018-12-16T01:18:56.038Z,2.89
2018-12-16T01:21:24.374Z,2.90
2018-12-16T01:23:52.720Z,2.88
2018-12-16T01:26:21.072Z,2.89
2018-12-16T01:28:49.404Z,2.90
2018-12-16T01:31:17.742Z,2.88
2018-12-16T01:33:46.089Z,2.87
2018-12-16T01:36:14.410Z,2.88
2018-12-16T01:38:42.988Z,2.82
2018-12-16T01:41:11.128Z,2.77
2018-12-16T01:43:39.457Z,2.76
2018-12-16T01:46:07.796Z,2.76
2018-12-16T01:48:36.169Z,2.73
2018-12-16T01:51:04.503Z,2.75
2018-12-16T01:53:32.871Z,2.77
2018-12-16T01:56:01.221Z,2.79
2018-12-16T01:58:29.574Z,2.78
2018-12-16T02:00:57.925Z,2.80
2018-12-16T02:03:26.273Z,2.83
2018-12-16T02:05:54.619Z,2.82
2018-12-16T02:08:23.179Z,2.82
2018-12-16T02:10:51.290Z,2.85
2018-12-16T02:13:19.628Z,2.88
2018-12-16T02:15:48.015Z,2.91
2018-12-16T02:18:16.384Z,2.90
2018-12-16T02:20:44.718Z,2.88
2018-12-16T02:23:13.075Z,2.85
2018-12-16T02:25:41.417Z,2.82
2018-12-16T02:28:09.746Z,2.81
2018-12-16T02:30:38.100Z,2.83
2018-12-16T02:33:06.432Z,2.80
2018-12-16T02:35:34.776Z,2.79
2018-12-16T02:38:03.346Z,2.75
2018-12-16T02:40:31.450Z,2.75
2018-12-16T02:42:59.825Z,2.74
2018-12-16T02:45:28.148Z,2.71
2018-12-16T02:47:56.492Z,2.70
2018-12-16T02:50:24.856Z,2.67
2018-12-16T02:52:53.412Z,2.66
2018-12-16T02:55:21.537Z,2.63
2018-12-16T02:57:49.877Z,2.61
2018-12-16T03:00:18.309Z,2.61
2018-12-16T03:02:46.596Z,2.61
2018-12-16T03:05:14.917Z,2.60
2018-12-16T03:07:43.280Z,2.62
2018-12-16T03:10:12.597Z,2.63
2018-12-16T03:12:40.969Z,2.63
2018-12-16T03:15:09.310Z,2.65
2018-12-16T03:17:37.661Z,2.68
2018-12-16T03:20:05.997Z,2.69
2018-12-16T03:22:34.343Z,2.65
2018-12-16T03:25:02.678Z,2.63
2018-12-16T03:27:31.018Z,2.62
2018-12-16T03:29:59.359Z,2.61
2018-12-16T03:32:27.697Z,2.60
2018-12-16T03:34:56.060Z,2.60
2018-12-16T03:37:24.379Z,2.59
2018-12-16T03:39:52.724Z,2.60
2018-12-16T03:42:21.058Z,2.59
2018-12-16T03:44:49.400Z,2.61
2018-12-16T03:47:17.738Z,2.65
2018-12-16T03:49:46.071Z,2.66
2018-12-16T03:52:14.440Z,2.68
2018-12-16T03:54:42.773Z,2.68
2018-12-16T03:57:11.121Z,2.70
2018-12-16T03:59:39.443Z,2.72
2018-12-16T04:02:07.774Z,2.72
2018-12-16T04:04:36.102Z,2.75
2018-12-16T04:07:04.433Z,2.78
2018-12-16T04:09:32.787Z,2.77
2018-12-16T04:12:01.132Z,2.77
2018-12-16T04:14:29.477Z,2.77
2018-12-16T04:16:57.877Z,2.78
2018-12-16T04:19:26.139Z,2.79
2018-12-16T04:21:54.694Z,2.82
2018-12-16T04:24:22.808Z,2.82
2018-12-16T04:26:51.147Z,2.82
2018-12-16T04:29:19.492Z,2.81
2018-12-16T04:31:48.055Z,2.82
2018-12-16T04:34:16.145Z,2.82
2018-12-16T04:36:44.497Z,2.80
2018-12-16T04:39:12.839Z,2.77
2018-12-16T04:41:41.175Z,2.75
2018-12-16T04:44:09.513Z,2.75
2018-12-16T04:46:37.836Z,2.72
2018-12-16T04:49:06.182Z,2.72
2018-12-16T04:51:34.509Z,2.72
2018-12-16T04:54:02.881Z,2.73
2018-12-16T04:56:31.225Z,2.73
2018-12-16T04:58:59.546Z,2.74
2018-12-16T05:01:28.104Z,2.75
2018-12-16T05:03:56.227Z,2.73
2018-12-16T05:06:24.554Z,2.73
2018-12-16T05:08:52.887Z,2.70
2018-12-16T05:11:21.243Z,2.65
2018-12-16T05:13:49.590Z,2.66
2018-12-16T05:16:17.949Z,2.67
2018-12-16T05:18:46.308Z,2.69
2018-12-16T05:21:14.675Z,2.70
2018-12-16T05:23:43.004Z,2.73
2018-12-16T05:26:11.434Z,2.74
2018-12-16T05:28:39.667Z,2.74
2018-12-16T05:31:08.045Z,2.71
2018-12-16T05:33:36.377Z,2.69
2018-12-16T05:36:04.732Z,2.66
2018-12-16T05:38:33.050Z,2.63
2018-12-16T05:41:01.416Z,2.60
2018-12-16T05:43:29.772Z,2.60
2018-12-16T05:45:58.101Z,2.62
2018-12-16T05:48:26.432Z,2.61
2018-12-16T05:50:54.766Z,2.63
2018-12-16T05:53:23.113Z,2.65
2018-12-16T05:55:51.483Z,2.65
2018-12-16T05:58:19.827Z,2.62
2018-12-16T06:00:48.155Z,2.63
2018-12-16T06:03:16.483Z,2.60
2018-12-16T06:05:44.822Z,2.59
2018-12-16T06:08:13.160Z,2.60
2018-12-16T06:10:41.479Z,2.62
2018-12-16T06:13:09.815Z,2.63
2018-12-16T06:15:38.153Z,2.62
2018-12-16T06:18:06.502Z,2.59
2018-12-16T06:20:34.828Z,2.56
2018-12-16T06:23:03.171Z,2.53
2018-12-16T06:25:31.515Z,2.49
2018-12-16T06:27:59.843Z,2.46
2018-12-16T06:30:28.181Z,2.45
2018-12-16T06:32:56.504Z,2.42
2018-12-16T06:35:24.834Z,2.38
2018-12-16T06:37:53.745Z,2.35
2018-12-16T06:40:21.881Z,2.34
2018-12-16T06:42:50.459Z,2.34
2018-12-16T06:45:18.795Z,2.35
2018-12-16T06:47:46.893Z,2.34
2018-12-16T06:50:15.226Z,2.34
2018-12-16T06:52:43.538Z,2.31
2018-12-16T06:55:11.871Z,2.35
2018-12-16T06:57:40.226Z,2.36
2018-12-16T07:00:08.585Z,2.39
2018-12-16T07:02:36.929Z,2.40
2018-12-16T07:05:05.263Z,2.40
2018-12-16T07:07:33.603Z,2.35
2018-12-16T07:10:01.934Z,2.35
2018-12-16T07:12:30.269Z,2.36
2018-12-16T07:14:58.635Z,2.37
2018-12-16T07:17:27.014Z,2.35
2018-12-16T07:19:55.346Z,2.28
2018-12-16T07:22:23.671Z,2.29
2018-12-16T07:24:52.034Z,2.26
2018-12-16T07:27:20.336Z,2.28
2018-12-16T07:29:48.717Z,2.27
2018-12-16T07:32:17.070Z,2.28
2018-12-16T07:34:45.399Z,2.24
2018-12-16T07:37:18.986Z,2.22
2018-12-16T07:39:42.047Z,2.20
2018-12-16T07:42:10.429Z,2.14
2018-12-16T07:44:38.786Z,2.10
2018-12-16T07:47:07.348Z,2.09
2018-12-16T07:49:35.661Z,2.09
2018-12-16T07:52:03.992Z,2.12
2018-12-16T07:54:32.330Z,2.16
2018-12-16T07:57:00.675Z,2.18
2018-12-16T07:59:29.033Z,2.20
2018-12-16T08:01:57.382Z,2.21
2018-12-16T08:04:25.712Z,2.22
2018-12-16T08:06:54.028Z,2.23
2018-12-16T08:09:22.359Z,2.22
2018-12-16T08:11:50.929Z,2.22
2018-12-16T08:14:19.285Z,2.23
2018-12-16T08:16:47.797Z,2.20
2018-12-16T08:19:16.125Z,2.19
2018-12-16T08:21:44.448Z,2.19
2018-12-16T08:24:12.787Z,2.15
2018-12-16T08:26:41.192Z,2.19
2018-12-16T08:29:09.571Z,2.19
2018-12-16T08:31:37.976Z,2.17
2018-12-16T08:34:06.344Z,2.19
2018-12-16T08:36:34.738Z,2.18
2018-12-16T08:39:03.133Z,2.15
2018-12-16T08:41:31.449Z,2.08
2018-12-16T08:43:59.776Z,2.06
2018-12-16T08:46:28.117Z,2.07
2018-12-16T08:48:56.466Z,2.11
2018-12-16T08:51:24.801Z,2.10
2018-12-16T08:53:53.166Z,2.11
2018-12-16T08:56:21.517Z,2.13
2018-12-16T08:58:49.887Z,2.10
2018-12-16T09:01:18.540Z,2.09
2018-12-16T09:03:47.145Z,2.11
2018-12-16T09:06:15.529Z,2.18
2018-12-16T09:08:44.198Z,2.22
2018-12-16T09:11:12.575Z,2.22
2018-12-16T09:13:41.239Z,2.21
2018-12-16T09:16:10.115Z,2.24
2018-12-16T09:18:38.517Z,2.28
2018-12-16T09:21:06.895Z,2.31
2018-12-16T09:23:36.160Z,2.32
2018-12-16T09:26:04.787Z,2.34
2018-12-16T09:28:33.134Z,2.35
2018-12-16T09:31:02.677Z,2.38
2018-12-16T09:33:31.057Z,2.40
2018-12-16T09:35:59.411Z,2.39
2018-12-16T09:38:27.762Z,2.39
2018-12-16T09:40:57.000Z,2.39
2018-12-16T09:43:25.362Z,2.34
2018-12-16T09:45:53.745Z,2.32
2018-12-16T09:48:22.172Z,2.36
2018-12-16T09:50:50.670Z,2.39
2018-12-16T09:53:19.019Z,2.40
2018-12-16T09:55:47.121Z,2.43
2018-12-16T09:58:15.470Z,2.44
2018-12-16T10:00:43.829Z,2.43
2018-12-16T10:03:12.196Z,2.45
2018-12-16T10:05:40.777Z,2.49
2018-12-16T10:08:08.914Z,2.53
2018-12-16T10:10:37.278Z,2.54
2018-12-16T10:13:05.836Z,2.55
2018-12-16T10:15:34.180Z,2.53
2018-12-16T10:18:02.525Z,2.49
2018-12-16T10:20:30.856Z,2.48
2018-12-16T10:23:00.084Z,2.49
2018-12-16T10:25:28.450Z,2.51
2018-12-16T10:27:56.816Z,2.48
2018-12-16T10:30:25.150Z,2.48
2018-12-16T10:32:53.497Z,2.45
2018-12-16T10:35:22.764Z,2.43
2018-12-16T10:37:51.112Z,2.47
2018-12-16T10:40:19.458Z,2.49
2018-12-16T10:42:47.794Z,2.48
2018-12-16T10:45:16.134Z,2.48
2018-12-16T10:47:44.475Z,2.48
2018-12-16T10:50:12.819Z,2.48
2018-12-16T10:52:41.168Z,2.46
2018-12-16T10:55:09.495Z,2.45
2018-12-16T10:57:37.860Z,2.52
2018-12-16T11:00:09.032Z,2.57
2018-12-16T11:02:37.353Z,2.64
2018-12-16T11:05:05.747Z,2.68
2018-12-16T11:07:34.100Z,2.72
2018-12-16T11:10:02.432Z,2.76
2018-12-16T11:12:30.779Z,2.83
2018-12-16T11:14:59.113Z,2.82
2018-12-16T11:17:27.702Z,2.84
2018-12-16T11:19:56.032Z,2.92
2018-12-16T11:22:24.384Z,2.98
2018-12-16T11:24:52.487Z,2.99
2018-12-16T11:27:20.909Z,2.98
2018-12-16T11:29:49.259Z,3.00
2018-12-16T11:32:17.594Z,3.03
2018-12-16T11:34:45.931Z,3.05
2018-12-16T11:37:14.284Z,3.04
2018-12-16T11:39:42.618Z,2.98
2018-12-16T11:42:10.942Z,2.89
2018-12-16T11:44:39.283Z,2.87
2018-12-16T11:47:07.632Z,2.85
2018-12-16T11:49:36.290Z,2.79
2018-12-16T11:52:04.736Z,2.73
2018-12-16T11:54:33.147Z,2.68
2018-12-16T11:57:01.481Z,2.66
2018-12-16T11:59:29.867Z,2.66
2018-12-16T12:01:58.219Z,2.68
2018-12-16T12:04:27.286Z,2.69
2018-12-16T12:06:55.945Z,2.69
2018-12-16T12:09:24.301Z,2.68
2018-12-16T12:11:52.672Z,2.66
2018-12-16T12:14:21.031Z,2.65
2018-12-16T12:16:49.364Z,2.63
2018-12-16T12:19:17.745Z,2.66
2018-12-16T12:21:46.083Z,2.67
2018-12-16T12:24:14.467Z,2.66
2018-12-16T12:26:42.843Z,2.66
2018-12-16T12:29:11.219Z,2.66
2018-12-16T12:31:39.569Z,2.64
2018-12-16T12:34:08.378Z,2.61
2018-12-16T12:36:36.694Z,2.61
2018-12-16T12:39:05.027Z,2.59
2018-12-16T12:41:33.369Z,2.56
2018-12-16T12:44:01.777Z,2.49
2018-12-16T12:46:30.315Z,2.50
2018-12-16T12:48:58.654Z,2.50
2018-12-16T12:51:27.033Z,2.53
2018-12-16T12:53:55.354Z,2.50
2018-12-16T12:56:23.689Z,2.46
2018-12-16T12:58:52.144Z,2.48
2018-12-16T13:01:20.477Z,2.45
2018-12-16T13:03:48.813Z,2.45
2018-12-16T13:06:17.150Z,2.46
2018-12-16T13:08:46.389Z,2.46
2018-12-16T13:11:15.089Z,2.46
2018-12-16T13:13:43.480Z,2.42
2018-12-16T13:16:14.272Z,2.37
2018-12-16T13:18:43.139Z,2.34
2018-12-16T13:21:12.425Z,2.32
2018-12-16T13:23:44.853Z,2.28
2018-12-16T13:26:14.433Z,2.18
2018-12-16T13:28:42.723Z,2.17
2018-12-16T13:31:11.082Z,2.18
2018-12-16T13:33:39.431Z,2.16
2018-12-16T13:36:07.817Z,2.15
2018-12-16T13:38:36.196Z,2.10
2018-12-16T13:41:04.608Z,2.03
2018-12-16T13:43:32.946Z,2.01
2018-12-16T13:46:01.304Z,1.92
2018-12-16T13:48:29.702Z,1.84
2018-12-16T13:50:58.055Z,1.83
2018-12-16T13:53:28.147Z,1.81
2018-12-16T13:55:56.819Z,1.78
2018-12-16T13:58:25.174Z,1.76
2018-12-16T14:00:54.896Z,1.75
2018-12-16T14:03:23.571Z,1.76
2018-12-16T14:05:51.977Z,1.77
2018-12-16T14:08:20.320Z,1.76
2018-12-16T14:10:48.933Z,1.79
2018-12-16T14:13:17.307Z,1.79
2018-12-16T14:15:52.160Z,1.81
2018-12-16T14:18:14.052Z,1.83
2018-12-16T14:20:43.342Z,1.84
2018-12-16T14:23:11.688Z,1.83
2018-12-16T14:25:40.086Z,1.85
2018-12-16T14:28:08.417Z,1.83
2018-12-16T14:30:36.754Z,1.83
2018-12-16T14:33:05.984Z,1.82
2018-12-16T14:35:34.569Z,1.79
2018-12-16T14:38:12.576Z,1.77
2018-12-16T14:43:37.390Z,1.75
2018-12-16T14:46:05.823Z,1.77
2018-12-16T14:48:34.164Z,1.73
2018-12-16T14:51:02.741Z,1.71
2018-12-16T14:53:30.857Z,1.76
2018-12-16T14:55:59.433Z,1.79
2018-12-16T14:58:27.582Z,1.80
2018-12-16T15:00:55.891Z,1.82
2018-12-16T15:03:24.243Z,1.76
2018-12-16T15:05:52.741Z,1.72
2018-12-16T15:08:21.162Z,1.74
2018-12-16T15:10:49.525Z,1.73
2018-12-16T15:13:17.879Z,1.76
2018-12-16T15:15:46.220Z,1.78
2018-12-16T15:18:14.557Z,1.80
2018-12-16T15:20:43.123Z,1.82
2018-12-16T15:23:11.244Z,1.83
2018-12-16T15:25:39.591Z,1.82
2018-12-16T15:28:07.935Z,1.83
2018-12-16T15:30:36.267Z,1.84
2018-12-16T15:33:05.223Z,1.80
2018-12-16T15:35:33.551Z,1.78
2018-12-16T15:38:01.889Z,1.76
2018-12-16T15:40:30.241Z,1.76
2018-12-16T15:42:58.589Z,1.77
2018-12-16T15:45:26.939Z,1.81
2018-12-16T15:47:55.275Z,1.84
2018-12-16T15:50:24.009Z,1.80
2018-12-16T15:52:52.336Z,1.76
2018-12-16T15:55:20.697Z,1.75
2018-12-16T15:57:49.047Z,1.75
2018-12-16T16:00:17.609Z,1.74
2018-12-16T16:02:45.730Z,1.70
2018-12-16T16:05:14.060Z,1.67
2018-12-16T16:07:42.406Z,1.62
2018-12-16T16:10:10.766Z,1.63
2018-12-16T16:12:43.240Z,1.65
2018-12-16T16:15:10.692Z,1.67
2018-12-16T16:17:39.924Z,1.70
2018-12-16T16:20:07.553Z,1.70
2018-12-16T16:22:38.881Z,1.69
2018-12-16T16:25:06.963Z,1.65
2018-12-16T16:27:34.939Z,1.63
2018-12-16T16:30:03.254Z,1.61
2018-12-16T16:32:31.542Z,1.63
2018-12-16T16:34:59.880Z,1.64
2018-12-16T16:37:28.238Z,1.63
2018-12-16T16:39:56.570Z,1.62
2018-12-16T16:42:24.914Z,1.60
2018-12-16T16:44:53.271Z,1.62
2018-12-16T16:47:21.613Z,1.60
2018-12-16T16:49:49.970Z,1.57
2018-12-16T16:52:18.613Z,1.57
2018-12-16T16:54:46.951Z,1.56
2018-12-16T16:57:15.303Z,1.56
2018-12-16T16:59:43.639Z,1.60
2018-12-16T17:02:11.972Z,1.58
2018-12-16T17:04:40.342Z,1.55
2018-12-16T17:07:08.685Z,1.55
2018-12-16T17:09:37.018Z,1.60
2018-12-16T17:12:05.377Z,1.61
2018-12-16T17:14:33.768Z,1.60
2018-12-16T17:17:02.120Z,1.59
2018-12-16T17:19:30.466Z,1.56
2018-12-16T17:21:58.810Z,1.54
2018-12-16T17:24:27.168Z,1.53
2018-12-16T17:26:55.554Z,1.52
2018-12-16T17:29:23.915Z,1.52
2018-12-16T17:31:52.239Z,1.54
2018-12-16T17:34:20.607Z,1.56
2018-12-16T17:36:48.964Z,1.53
2018-12-16T17:39:17.311Z,1.51
2018-12-16T17:41:45.652Z,1.48
2018-12-16T17:44:14.006Z,1.47
2018-12-16T17:46:42.680Z,1.44
2018-12-16T17:49:11.017Z,1.43
2018-12-16T17:51:39.483Z,1.43
2018-12-16T17:54:08.054Z,1.46
2018-12-16T17:56:37.211Z,1.51
2018-12-16T17:59:04.528Z,1.49
2018-12-16T18:01:32.868Z,1.45
2018-12-16T18:04:01.238Z,1.40
2018-12-16T18:06:29.584Z,1.38
2018-12-16T18:08:57.928Z,1.38
2018-12-16T18:11:26.264Z,1.41
2018-12-16T18:13:55.639Z,1.42
2018-12-16T18:16:24.019Z,1.45
2018-12-16T18:18:52.830Z,1.47
2018-12-16T18:21:21.414Z,1.45
2018-12-16T18:23:48.953Z,1.46
2018-12-16T18:26:17.919Z,1.48
2018-12-16T18:28:46.401Z,1.49
2018-12-16T18:31:14.813Z,1.47
2018-12-16T18:33:43.101Z,1.50
2018-12-16T18:36:11.460Z,1.48
2018-12-16T18:38:39.902Z,1.49
2018-12-16T18:41:08.388Z,1.49
2018-12-16T18:43:36.983Z,1.50
2018-12-16T18:46:05.443Z,1.51
2018-12-16T18:48:34.180Z,1.52
2018-12-16T18:51:02.753Z,1.57
2018-12-16T18:53:30.884Z,1.60
2018-12-16T18:55:59.211Z,1.60
2018-12-16T18:58:27.556Z,1.58
2018-12-16T19:00:56.271Z,1.55
2018-12-16T19:03:24.615Z,1.52
2018-12-16T19:05:52.942Z,1.53
2018-12-16T19:08:21.378Z,1.54
2018-12-16T19:10:49.722Z,1.52
2018-12-16T19:13:18.069Z,1.51
2018-12-16T19:15:46.403Z,1.51
2018-12-16T19:18:14.778Z,1.51
2018-12-16T19:20:43.126Z,1.50
2018-12-16T19:23:11.482Z,1.52
2018-12-16T19:25:39.803Z,1.53
2018-12-16T19:28:08.140Z,1.50
2018-12-16T19:30:36.700Z,1.49
2018-12-16T19:33:04.815Z,1.49
2018-12-16T19:35:33.857Z,1.46
2018-12-16T19:38:03.316Z,1.44
2018-12-16T19:40:30.817Z,1.42
2018-12-16T19:42:59.154Z,1.44
2018-12-16T19:45:27.488Z,1.48
2018-12-16T19:47:56.108Z,1.48
2018-12-16T19:50:24.552Z,1.50
2018-12-16T19:52:52.876Z,1.50
2018-12-16T19:55:22.026Z,1.50
2018-12-16T19:57:50.383Z,1.54
2018-12-16T20:00:18.750Z,1.56
2018-12-16T20:02:47.109Z,1.55
2018-12-16T20:05:21.127Z,1.51
2018-12-16T20:07:49.722Z,1.48
2018-12-16T20:10:17.830Z,1.47
2018-12-16T20:12:47.081Z,1.46
2018-12-16T20:15:15.493Z,1.45
2018-12-16T20:17:44.590Z,1.43
2018-12-16T20:20:13.272Z,1.40
2018-12-16T20:22:41.409Z,1.43
2018-12-16T20:25:09.775Z,1.45
2018-12-16T20:27:38.135Z,1.45
2018-12-16T20:30:06.552Z,1.47
2018-12-16T20:32:34.915Z,1.50
2018-12-16T20:35:03.232Z,1.44
2018-12-16T20:37:32.392Z,1.41
2018-12-16T20:40:00.965Z,1.39
2018-12-16T20:42:29.083Z,1.37
2018-12-16T20:44:57.407Z,1.35
2018-12-16T20:47:25.740Z,1.35
2018-12-16T20:49:55.580Z,1.35
2018-12-16T20:52:23.984Z,1.35
2018-12-16T20:54:52.315Z,1.36
2018-12-16T20:57:20.865Z,1.35
2018-12-16T20:59:50.696Z,1.36
2018-12-16T21:02:17.370Z,1.35
2018-12-16T21:04:45.700Z,1.35
2018-12-16T21:07:14.045Z,1.36
2018-12-16T21:09:42.416Z,1.34
2018-12-16T21:12:10.755Z,1.36
2018-12-16T21:14:44.626Z,1.36
2018-12-16T21:17:18.527Z,1.36
2018-12-16T21:19:46.869Z,1.35
2018-12-16T21:22:15.507Z,1.34
2018-12-16T21:24:43.833Z,1.34
2018-12-16T21:27:12.301Z,1.31
2018-12-16T21:29:40.711Z,1.28
2018-12-16T21:32:09.154Z,1.30
2018-12-16T21:34:37.697Z,1.27
2018-12-16T21:37:06.340Z,1.26
2018-12-16T21:39:34.852Z,1.22
2018-12-16T21:42:03.225Z,1.20
2018-12-16T21:44:31.556Z,1.19
2018-12-16T21:47:01.969Z,1.20
2018-12-16T21:49:30.449Z,1.21
2018-12-16T21:51:58.838Z,1.23
2018-12-16T21:54:27.197Z,1.25
2018-12-16T21:56:55.510Z,1.25
2018-12-16T21:59:24.787Z,1.26
2018-12-16T22:01:53.142Z,1.30
2018-12-16T22:04:22.393Z,1.32
2018-12-16T22:06:50.727Z,1.32
2018-12-16T22:09:19.060Z,1.32
2018-12-16T22:11:47.401Z,1.30
2018-12-16T22:14:15.879Z,1.31
2018-12-16T22:16:44.491Z,1.31
2018-12-16T22:19:13.271Z,1.33
2018-12-16T22:21:41.610Z,1.33
2018-12-16T22:24:09.952Z,1.37
2018-12-16T22:26:38.487Z,1.39
2018-12-16T22:29:06.851Z,1.40
2018-12-16T22:31:35.319Z,1.40
2018-12-16T22:34:04.002Z,1.43
2018-12-16T22:36:33.001Z,1.44
2018-12-16T22:39:01.545Z,1.43
2018-12-16T22:41:29.792Z,1.43
2018-12-16T22:43:58.180Z,1.47
2018-12-16T22:46:26.580Z,1.46
2018-12-16T22:48:55.074Z,1.45
2018-12-16T22:51:23.855Z,1.43
2018-12-16T22:53:52.084Z,1.41
2018-12-16T22:56:20.750Z,1.40
2018-12-16T22:58:54.346Z,1.41
2018-12-16T23:01:17.512Z,1.43
2018-12-16T23:03:46.019Z,1.43
2018-12-16T23:06:15.157Z,1.44
2018-12-16T23:08:43.505Z,1.45
2018-12-16T23:11:11.863Z,1.42
2018-12-16T23:13:40.196Z,1.40
2018-12-16T23:16:08.545Z,1.35
2018-12-16T23:18:36.890Z,1.31
2018-12-16T23:21:05.231Z,1.30
2018-12-16T23:23:33.547Z,1.32
2018-12-16T23:26:01.900Z,1.32
2018-12-16T23:28:30.237Z,1.27
2018-12-16T23:30:58.578Z,1.25
2018-12-16T23:33:26.899Z,1.26
2018-12-16T23:35:55.237Z,1.30
2018-12-16T23:38:23.565Z,1.31
2018-12-16T23:40:51.888Z,1.28
2018-12-16T23:43:20.237Z,1.23
2018-12-16T23:45:48.585Z,1.22
2018-12-16T23:48:16.912Z,1.23
2018-12-16T23:50:45.258Z,1.26
2018-12-16T23:53:13.579Z,1.25
2018-12-16T23:55:41.912Z,1.26
2018-12-16T23:58:10.242Z,1.27
